sensor_id;sensor_type;location;lat;lon;timestamp;P1;durP1;ratioP1;P2;durP2;ratioP2
19863;SDS011;10094;48.820;9.226;2022-07-24T00:01:33;14.40;;;13.07;;
19863;SDS011;10094;48.820;9.226;2022-07-24T00:08:16;13.85;;;12.65;;
19863;SDS011;10094;48.820;9.226;2022-07-24T00:15:00;15.00;;;13.45;;
19863;SDS011;10094;48.820;9.226;2022-07-24T00:21:42;14.55;;;13.25;;
19863;SDS011;10094;48.820;9.226;2022-07-24T00:28:25;16.05;;;14.10;;
19863;SDS011;10094;48.820;9.226;2022-07-24T00:35:08;15.70;;;13.80;;
19863;SDS011;10094;48.820;9.226;2022-07-24T00:41:50;14.93;;;13.52;;
19863;SDS011;10094;48.820;9.226;2022-07-24T00:48:36;15.88;;;14.27;;
19863;SDS011;10094;48.820;9.226;2022-07-24T00:55:20;15.27;;;13.77;;
19863;SDS011;10094;48.820;9.226;2022-07-24T01:02:03;15.70;;;14.10;;
19863;SDS011;10094;48.820;9.226;2022-07-24T01:08:46;15.95;;;14.43;;
19863;SDS011;10094;48.820;9.226;2022-07-24T01:15:28;15.65;;;14.13;;
19863;SDS011;10094;48.820;9.226;2022-07-24T01:22:11;17.00;;;15.20;;
19863;SDS011;10094;48.820;9.226;2022-07-24T01:29:12;15.88;;;14.45;;
19863;SDS011;10094;48.820;9.226;2022-07-24T01:35:54;16.27;;;14.48;;
19863;SDS011;10094;48.820;9.226;2022-07-24T01:42:37;15.68;;;14.07;;
19863;SDS011;10094;48.820;9.226;2022-07-24T01:49:55;14.95;;;13.55;;
19863;SDS011;10094;48.820;9.226;2022-07-24T01:56:38;16.63;;;14.93;;
19863;SDS011;10094;48.820;9.226;2022-07-24T02:03:21;15.93;;;14.50;;
19863;SDS011;10094;48.820;9.226;2022-07-24T02:10:03;15.63;;;14.07;;
19863;SDS011;10094;48.820;9.226;2022-07-24T02:16:46;16.42;;;14.27;;
19863;SDS011;10094;48.820;9.226;2022-07-24T02:23:29;16.33;;;14.63;;
19863;SDS011;10094;48.820;9.226;2022-07-24T02:30:13;14.43;;;13.02;;
19863;SDS011;10094;48.820;9.226;2022-07-24T02:36:57;15.02;;;13.63;;
19863;SDS011;10094;48.820;9.226;2022-07-24T02:43:40;15.65;;;14.15;;
19863;SDS011;10094;48.820;9.226;2022-07-24T02:50:23;15.23;;;13.82;;
19863;SDS011;10094;48.820;9.226;2022-07-24T02:57:07;16.15;;;14.75;;
19863;SDS011;10094;48.820;9.226;2022-07-24T03:03:49;15.23;;;13.73;;
19863;SDS011;10094;48.820;9.226;2022-07-24T03:10:32;14.63;;;13.32;;
19863;SDS011;10094;48.820;9.226;2022-07-24T03:17:14;16.05;;;14.32;;
19863;SDS011;10094;48.820;9.226;2022-07-24T03:23:57;16.75;;;14.75;;
19863;SDS011;10094;48.820;9.226;2022-07-24T03:30:39;15.75;;;14.25;;
19863;SDS011;10094;48.820;9.226;2022-07-24T03:37:22;17.10;;;15.38;;
19863;SDS011;10094;48.820;9.226;2022-07-24T03:44:04;15.43;;;14.00;;
19863;SDS011;10094;48.820;9.226;2022-07-24T03:50:47;17.90;;;15.57;;
19863;SDS011;10094;48.820;9.226;2022-07-24T03:57:29;15.52;;;14.02;;
19863;SDS011;10094;48.820;9.226;2022-07-24T04:04:12;17.00;;;14.32;;
19863;SDS011;10094;48.820;9.226;2022-07-24T04:10:57;16.33;;;14.63;;
19863;SDS011;10094;48.820;9.226;2022-07-24T04:17:40;16.30;;;14.70;;
19863;SDS011;10094;48.820;9.226;2022-07-24T04:24:23;16.80;;;15.23;;
19863;SDS011;10094;48.820;9.226;2022-07-24T04:31:05;17.23;;;15.52;;
19863;SDS011;10094;48.820;9.226;2022-07-24T04:37:48;15.90;;;14.32;;
19863;SDS011;10094;48.820;9.226;2022-07-24T04:44:31;17.20;;;15.70;;
19863;SDS011;10094;48.820;9.226;2022-07-24T04:51:13;15.50;;;13.88;;
19863;SDS011;10094;48.820;9.226;2022-07-24T04:57:56;16.00;;;14.48;;
19863;SDS011;10094;48.820;9.226;2022-07-24T05:04:38;16.55;;;14.90;;
19863;SDS011;10094;48.820;9.226;2022-07-24T05:11:21;14.63;;;13.18;;
19863;SDS011;10094;48.820;9.226;2022-07-24T05:18:03;13.48;;;12.27;;
19863;SDS011;10094;48.820;9.226;2022-07-24T05:24:46;13.60;;;12.43;;
19863;SDS011;10094;48.820;9.226;2022-07-24T05:31:28;12.82;;;11.50;;
19863;SDS011;10094;48.820;9.226;2022-07-24T05:46:13;12.43;;;11.27;;
19863;SDS011;10094;48.820;9.226;2022-07-24T05:52:59;11.00;;;10.10;;
19863;SDS011;10094;48.820;9.226;2022-07-24T05:59:59;11.13;;;10.02;;
19863;SDS011;10094;48.820;9.226;2022-07-24T06:07:20;11.45;;;10.35;;
19863;SDS011;10094;48.820;9.226;2022-07-24T06:14:03;10.73;;;9.90;;
19863;SDS011;10094;48.820;9.226;2022-07-24T06:20:46;11.57;;;10.57;;
19863;SDS011;10094;48.820;9.226;2022-07-24T06:27:30;10.65;;;9.65;;
19863;SDS011;10094;48.820;9.226;2022-07-24T06:34:12;10.52;;;9.63;;
19863;SDS011;10094;48.820;9.226;2022-07-24T06:40:55;11.05;;;9.95;;
19863;SDS011;10094;48.820;9.226;2022-07-24T06:47:37;11.02;;;9.95;;
19863;SDS011;10094;48.820;9.226;2022-07-24T06:54:20;11.13;;;9.48;;
19863;SDS011;10094;48.820;9.226;2022-07-24T07:01:04;9.85;;;9.05;;
19863;SDS011;10094;48.820;9.226;2022-07-24T07:08:04;9.10;;;8.30;;
19863;SDS011;10094;48.820;9.226;2022-07-24T07:14:46;11.63;;;10.63;;
19863;SDS011;10094;48.820;9.226;2022-07-24T07:21:29;10.90;;;9.68;;
19863;SDS011;10094;48.820;9.226;2022-07-24T07:28:11;8.90;;;8.30;;
19863;SDS011;10094;48.820;9.226;2022-07-24T07:34:54;8.50;;;7.70;;
19863;SDS011;10094;48.820;9.226;2022-07-24T07:41:39;8.57;;;7.65;;
19863;SDS011;10094;48.820;9.226;2022-07-24T07:48:22;8.52;;;7.78;;
19863;SDS011;10094;48.820;9.226;2022-07-24T07:55:05;8.38;;;7.63;;
19863;SDS011;10094;48.820;9.226;2022-07-24T08:01:48;7.68;;;7.05;;
19863;SDS011;10094;48.820;9.226;2022-07-24T08:08:31;9.13;;;8.05;;
19863;SDS011;10094;48.820;9.226;2022-07-24T08:15:13;8.02;;;7.15;;
19863;SDS011;10094;48.820;9.226;2022-07-24T08:21:56;8.40;;;7.68;;
19863;SDS011;10094;48.820;9.226;2022-07-24T08:28:38;8.20;;;7.38;;
19863;SDS011;10094;48.820;9.226;2022-07-24T08:35:21;7.68;;;7.05;;
19863;SDS011;10094;48.820;9.226;2022-07-24T08:42:13;7.60;;;7.00;;
19863;SDS011;10094;48.820;9.226;2022-07-24T08:48:55;8.55;;;7.75;;
19863;SDS011;10094;48.820;9.226;2022-07-24T08:55:39;7.85;;;7.25;;
19863;SDS011;10094;48.820;9.226;2022-07-24T09:02:21;7.93;;;7.18;;
19863;SDS011;10094;48.820;9.226;2022-07-24T09:09:04;8.70;;;7.80;;
19863;SDS011;10094;48.820;9.226;2022-07-24T09:15:47;8.35;;;7.43;;
19863;SDS011;10094;48.820;9.226;2022-07-24T09:29:15;7.53;;;6.82;;
19863;SDS011;10094;48.820;9.226;2022-07-24T09:35:58;8.63;;;7.93;;
19863;SDS011;10094;48.820;9.226;2022-07-24T09:42:41;7.22;;;6.63;;
19863;SDS011;10094;48.820;9.226;2022-07-24T09:49:24;7.95;;;7.00;;
19863;SDS011;10094;48.820;9.226;2022-07-24T09:56:09;7.32;;;6.65;;
19863;SDS011;10094;48.820;9.226;2022-07-24T10:02:51;8.90;;;7.97;;
19863;SDS011;10094;48.820;9.226;2022-07-24T10:09:37;7.43;;;6.57;;
19863;SDS011;10094;48.820;9.226;2022-07-24T10:16:25;8.88;;;7.70;;
19863;SDS011;10094;48.820;9.226;2022-07-24T10:23:15;8.35;;;7.65;;
19863;SDS011;10094;48.820;9.226;2022-07-24T10:30:59;7.45;;;6.85;;
19863;SDS011;10094;48.820;9.226;2022-07-24T10:52:00;8.00;;;7.18;;
19863;SDS011;10094;48.820;9.226;2022-07-24T10:58:53;7.32;;;6.72;;
19863;SDS011;10094;48.820;9.226;2022-07-24T11:12:47;7.88;;;7.18;;
19863;SDS011;10094;48.820;9.226;2022-07-24T11:19:29;6.85;;;6.15;;
19863;SDS011;10094;48.820;9.226;2022-07-24T11:33:17;7.25;;;6.65;;
19863;SDS011;10094;48.820;9.226;2022-07-24T11:40:38;8.40;;;6.22;;
19863;SDS011;10094;48.820;9.226;2022-07-24T11:47:23;7.70;;;6.95;;
19863;SDS011;10094;48.820;9.226;2022-07-24T11:54:08;7.65;;;6.97;;
19863;SDS011;10094;48.820;9.226;2022-07-24T12:00:53;8.00;;;7.20;;
19863;SDS011;10094;48.820;9.226;2022-07-24T12:07:54;8.13;;;7.05;;
19863;SDS011;10094;48.820;9.226;2022-07-24T12:14:38;7.82;;;7.13;;
19863;SDS011;10094;48.820;9.226;2022-07-24T12:21:20;8.07;;;6.97;;
19863;SDS011;10094;48.820;9.226;2022-07-24T12:28:07;8.40;;;7.70;;
19863;SDS011;10094;48.820;9.226;2022-07-24T12:34:51;8.55;;;7.32;;
19863;SDS011;10094;48.820;9.226;2022-07-24T12:41:54;7.70;;;6.68;;
19863;SDS011;10094;48.820;9.226;2022-07-24T12:49:04;6.93;;;6.20;;
19863;SDS011;10094;48.820;9.226;2022-07-24T12:56:01;7.47;;;6.78;;
19863;SDS011;10094;48.820;9.226;2022-07-24T13:02:50;6.72;;;6.15;;
19863;SDS011;10094;48.820;9.226;2022-07-24T13:09:32;8.95;;;7.32;;
19863;SDS011;10094;48.820;9.226;2022-07-24T13:16:19;7.25;;;6.55;;
19863;SDS011;10094;48.820;9.226;2022-07-24T13:23:02;6.70;;;6.10;;
19863;SDS011;10094;48.820;9.226;2022-07-24T13:29:44;11.70;;;6.80;;
19863;SDS011;10094;48.820;9.226;2022-07-24T13:36:27;7.60;;;6.72;;
19863;SDS011;10094;48.820;9.226;2022-07-24T13:43:09;10.35;;;6.90;;
19863;SDS011;10094;48.820;9.226;2022-07-24T13:49:52;7.47;;;6.78;;
19863;SDS011;10094;48.820;9.226;2022-07-24T13:56:34;7.80;;;6.88;;
19863;SDS011;10094;48.820;9.226;2022-07-24T14:03:16;7.78;;;7.07;;
19863;SDS011;10094;48.820;9.226;2022-07-24T14:10:37;7.70;;;7.00;;
19863;SDS011;10094;48.820;9.226;2022-07-24T14:17:20;7.20;;;6.57;;
19863;SDS011;10094;48.820;9.226;2022-07-24T14:24:02;7.18;;;6.57;;
19863;SDS011;10094;48.820;9.226;2022-07-24T14:31:03;7.28;;;6.68;;
19863;SDS011;10094;48.820;9.226;2022-07-24T14:37:46;7.47;;;6.80;;
19863;SDS011;10094;48.820;9.226;2022-07-24T14:44:29;7.80;;;6.63;;
19863;SDS011;10094;48.820;9.226;2022-07-24T14:51:11;7.82;;;7.03;;
19863;SDS011;10094;48.820;9.226;2022-07-24T14:57:54;6.97;;;6.38;;
19863;SDS011;10094;48.820;9.226;2022-07-24T15:04:36;8.52;;;6.43;;
19863;SDS011;10094;48.820;9.226;2022-07-24T15:11:19;7.00;;;6.40;;
19863;SDS011;10094;48.820;9.226;2022-07-24T15:18:03;7.05;;;6.45;;
19863;SDS011;10094;48.820;9.226;2022-07-24T15:24:45;7.25;;;6.65;;
19863;SDS011;10094;48.820;9.226;2022-07-24T15:31:28;7.68;;;6.85;;
19863;SDS011;10094;48.820;9.226;2022-07-24T15:38:10;7.10;;;6.40;;
19863;SDS011;10094;48.820;9.226;2022-07-24T15:44:54;7.85;;;7.15;;
19863;SDS011;10094;48.820;9.226;2022-07-24T15:51:37;7.65;;;7.00;;
19863;SDS011;10094;48.820;9.226;2022-07-24T15:58:19;7.00;;;6.40;;
19863;SDS011;10094;48.820;9.226;2022-07-24T16:05:02;7.22;;;6.50;;
19863;SDS011;10094;48.820;9.226;2022-07-24T16:11:45;6.82;;;6.22;;
19863;SDS011;10094;48.820;9.226;2022-07-24T16:18:27;8.15;;;6.85;;
19863;SDS011;10094;48.820;9.226;2022-07-24T16:25:10;7.22;;;6.57;;
19863;SDS011;10094;48.820;9.226;2022-07-24T16:31:53;7.60;;;6.80;;
19863;SDS011;10094;48.820;9.226;2022-07-24T16:38:36;7.47;;;6.78;;
19863;SDS011;10094;48.820;9.226;2022-07-24T16:45:18;7.25;;;6.65;;
19863;SDS011;10094;48.820;9.226;2022-07-24T16:52:20;7.38;;;6.68;;
19863;SDS011;10094;48.820;9.226;2022-07-24T16:59:23;7.13;;;6.43;;
19863;SDS011;10094;48.820;9.226;2022-07-24T17:06:08;8.45;;;6.43;;
19863;SDS011;10094;48.820;9.226;2022-07-24T17:12:50;8.40;;;7.50;;
19863;SDS011;10094;48.820;9.226;2022-07-24T17:19:33;6.80;;;6.18;;
19863;SDS011;10094;48.820;9.226;2022-07-24T17:26:15;6.93;;;6.38;;
19863;SDS011;10094;48.820;9.226;2022-07-24T17:32:58;7.40;;;6.80;;
19863;SDS011;10094;48.820;9.226;2022-07-24T17:39:42;11.13;;;10.07;;
19863;SDS011;10094;48.820;9.226;2022-07-24T17:46:24;7.60;;;6.90;;
19863;SDS011;10094;48.820;9.226;2022-07-24T17:53:07;7.38;;;6.72;;
19863;SDS011;10094;48.820;9.226;2022-07-24T17:59:49;7.25;;;6.63;;
19863;SDS011;10094;48.820;9.226;2022-07-24T18:06:32;8.27;;;7.53;;
19863;SDS011;10094;48.820;9.226;2022-07-24T18:13:14;9.15;;;8.25;;
19863;SDS011;10094;48.820;9.226;2022-07-24T18:20:01;9.40;;;8.50;;
19863;SDS011;10094;48.820;9.226;2022-07-24T18:26:49;7.95;;;7.22;;
19863;SDS011;10094;48.820;9.226;2022-07-24T18:33:31;8.38;;;6.97;;
19863;SDS011;10094;48.820;9.226;2022-07-24T18:40:15;8.55;;;7.72;;
19863;SDS011;10094;48.820;9.226;2022-07-24T18:46:58;8.48;;;7.50;;
19863;SDS011;10094;48.820;9.226;2022-07-24T18:53:40;8.82;;;7.75;;
19863;SDS011;10094;48.820;9.226;2022-07-24T19:00:23;7.90;;;7.03;;
19863;SDS011;10094;48.820;9.226;2022-07-24T19:07:42;8.40;;;7.43;;
19863;SDS011;10094;48.820;9.226;2022-07-24T19:14:24;8.43;;;7.57;;
19863;SDS011;10094;48.820;9.226;2022-07-24T19:21:06;9.48;;;8.60;;
19863;SDS011;10094;48.820;9.226;2022-07-24T19:27:49;8.77;;;7.97;;
19863;SDS011;10094;48.820;9.226;2022-07-24T19:34:31;10.45;;;8.68;;
19863;SDS011;10094;48.820;9.226;2022-07-24T19:41:14;10.18;;;9.10;;
19863;SDS011;10094;48.820;9.226;2022-07-24T19:47:57;10.55;;;9.05;;
19863;SDS011;10094;48.820;9.226;2022-07-24T19:54:40;10.82;;;9.10;;
19863;SDS011;10094;48.820;9.226;2022-07-24T20:01:23;13.82;;;12.43;;
19863;SDS011;10094;48.820;9.226;2022-07-24T20:08:06;10.73;;;9.73;;
19863;SDS011;10094;48.820;9.226;2022-07-24T20:14:48;13.57;;;9.70;;
19863;SDS011;10094;48.820;9.226;2022-07-24T20:21:31;10.95;;;9.90;;
19863;SDS011;10094;48.820;9.226;2022-07-24T20:28:13;10.43;;;9.32;;
19863;SDS011;10094;48.820;9.226;2022-07-24T20:34:56;12.77;;;9.82;;
19863;SDS011;10094;48.820;9.226;2022-07-24T20:41:56;9.98;;;9.07;;
19863;SDS011;10094;48.820;9.226;2022-07-24T20:48:39;10.20;;;9.20;;
19863;SDS011;10094;48.820;9.226;2022-07-24T20:55:22;10.55;;;9.55;;
19863;SDS011;10094;48.820;9.226;2022-07-24T21:02:05;11.30;;;9.68;;
19863;SDS011;10094;48.820;9.226;2022-07-24T21:08:48;10.90;;;9.90;;
19863;SDS011;10094;48.820;9.226;2022-07-24T21:15:36;11.05;;;9.95;;
19863;SDS011;10094;48.820;9.226;2022-07-24T21:22:19;10.98;;;9.93;;
19863;SDS011;10094;48.820;9.226;2022-07-24T21:29:01;11.70;;;10.13;;
19863;SDS011;10094;48.820;9.226;2022-07-24T21:35:44;11.32;;;10.25;;
19863;SDS011;10094;48.820;9.226;2022-07-24T21:42:27;10.43;;;9.52;;
19863;SDS011;10094;48.820;9.226;2022-07-24T21:49:09;10.05;;;9.07;;
19863;SDS011;10094;48.820;9.226;2022-07-24T21:55:53;11.57;;;10.20;;
19863;SDS011;10094;48.820;9.226;2022-07-24T22:02:35;10.77;;;9.68;;
19863;SDS011;10094;48.820;9.226;2022-07-24T22:09:18;10.65;;;9.57;;
19863;SDS011;10094;48.820;9.226;2022-07-24T22:16:03;10.85;;;9.90;;
19863;SDS011;10094;48.820;9.226;2022-07-24T22:22:46;11.75;;;10.57;;
19863;SDS011;10094;48.820;9.226;2022-07-24T22:29:29;12.15;;;10.95;;
19863;SDS011;10094;48.820;9.226;2022-07-24T22:36:12;12.27;;;10.82;;
19863;SDS011;10094;48.820;9.226;2022-07-24T22:42:55;13.02;;;10.90;;
19863;SDS011;10094;48.820;9.226;2022-07-24T22:49:38;14.38;;;10.23;;
19863;SDS011;10094;48.820;9.226;2022-07-24T22:56:22;16.15;;;10.93;;
19863;SDS011;10094;48.820;9.226;2022-07-24T23:03:08;12.80;;;10.65;;
19863;SDS011;10094;48.820;9.226;2022-07-24T23:09:52;11.30;;;10.15;;
19863;SDS011;10094;48.820;9.226;2022-07-24T23:16:35;12.93;;;10.77;;
19863;SDS011;10094;48.820;9.226;2022-07-24T23:23:17;13.00;;;11.60;;
19863;SDS011;10094;48.820;9.226;2022-07-24T23:29:59;11.38;;;10.30;;
19863;SDS011;10094;48.820;9.226;2022-07-24T23:36:43;11.73;;;10.55;;
19863;SDS011;10094;48.820;9.226;2022-07-24T23:43:25;12.80;;;11.38;;
19863;SDS011;10094;48.820;9.226;2022-07-24T23:50:08;11.77;;;10.68;;
19863;SDS011;10094;48.820;9.226;2022-07-24T23:56:51;12.40;;;11.18;;
